sensor_id;sensor_type;location;lat;lon;timestamp;temperature;humidity
16655;DHT22;8441;51.344;7.022;2023-03-08T00:00:59;1.20;99.90
16655;DHT22;8441;51.344;7.022;2023-03-08T00:03:26;1.20;99.90
16655;DHT22;8441;51.344;7.022;2023-03-08T00:05:55;1.20;99.90
16655;DHT22;8441;51.344;7.022;2023-03-08T00:08:22;1.20;99.90
16655;DHT22;8441;51.344;7.022;2023-03-08T00:10:49;1.20;99.90
16655;DHT22;8441;51.344;7.022;2023-03-08T00:13:16;1.20;99.90
16655;DHT22;8441;51.344;7.022;2023-03-08T00:15:43;1.20;99.90
16655;DHT22;8441;51.344;7.022;2023-03-08T00:18:11;1.20;99.90
16655;DHT22;8441;51.344;7.022;2023-03-08T00:20:38;1.30;99.90
16655;DHT22;8441;51.344;7.022;2023-03-08T00:23:07;1.30;99.90
16655;DHT22;8441;51.344;7.022;2023-03-08T00:25:34;1.20;99.90
16655;DHT22;8441;51.344;7.022;2023-03-08T00:28:01;1.30;99.90
16655;DHT22;8441;51.344;7.022;2023-03-08T00:30:29;1.30;99.90
16655;DHT22;8441;51.344;7.022;2023-03-08T00:32:56;1.30;99.90
16655;DHT22;8441;51.344;7.022;2023-03-08T00:35:23;1.20;99.90
16655;DHT22;8441;51.344;7.022;2023-03-08T00:37:50;1.30;99.90
16655;DHT22;8441;51.344;7.022;2023-03-08T00:40:19;1.30;99.90
16655;DHT22;8441;51.344;7.022;2023-03-08T00:42:46;1.30;99.90
16655;DHT22;8441;51.344;7.022;2023-03-08T00:45:13;1.30;99.90
16655;DHT22;8441;51.344;7.022;2023-03-08T00:47:41;1.30;99.90
16655;DHT22;8441;51.344;7.022;2023-03-08T00:50:09;1.30;99.90
16655;DHT22;8441;51.344;7.022;2023-03-08T00:52:37;1.30;99.90
16655;DHT22;8441;51.344;7.022;2023-03-08T00:55:05;1.30;99.90
16655;DHT22;8441;51.344;7.022;2023-03-08T00:57:33;1.30;99.90
16655;DHT22;8441;51.344;7.022;2023-03-08T01:00:01;1.30;99.90
16655;DHT22;8441;51.344;7.022;2023-03-08T01:02:30;1.30;99.90
16655;DHT22;8441;51.344;7.022;2023-03-08T01:04:57;1.20;99.90
16655;DHT22;8441;51.344;7.022;2023-03-08T01:07:24;1.30;99.90
16655;DHT22;8441;51.344;7.022;2023-03-08T01:09:53;1.30;99.90
16655;DHT22;8441;51.344;7.022;2023-03-08T01:12:21;1.20;99.90
16655;DHT22;8441;51.344;7.022;2023-03-08T01:14:51;1.30;99.90
16655;DHT22;8441;51.344;7.022;2023-03-08T01:17:18;1.30;99.90
16655;DHT22;8441;51.344;7.022;2023-03-08T01:19:46;1.20;99.90
16655;DHT22;8441;51.344;7.022;2023-03-08T01:22:13;1.30;99.90
16655;DHT22;8441;51.344;7.022;2023-03-08T01:24:43;1.20;99.90
16655;DHT22;8441;51.344;7.022;2023-03-08T01:27:10;1.20;99.90
16655;DHT22;8441;51.344;7.022;2023-03-08T01:29:37;1.20;99.90
16655;DHT22;8441;51.344;7.022;2023-03-08T01:32:07;1.20;99.90
16655;DHT22;8441;51.344;7.022;2023-03-08T01:34:35;1.20;99.90
16655;DHT22;8441;51.344;7.022;2023-03-08T01:37:02;1.30;99.90
16655;DHT22;8441;51.344;7.022;2023-03-08T01:39:30;1.30;99.90
16655;DHT22;8441;51.344;7.022;2023-03-08T01:41:57;1.30;99.90
16655;DHT22;8441;51.344;7.022;2023-03-08T01:44:24;1.20;99.90
16655;DHT22;8441;51.344;7.022;2023-03-08T01:46:51;1.20;99.90
16655;DHT22;8441;51.344;7.022;2023-03-08T01:49:22;1.20;99.90
16655;DHT22;8441;51.344;7.022;2023-03-08T01:51:54;1.20;99.90
16655;DHT22;8441;51.344;7.022;2023-03-08T01:54:25;1.30;99.90
16655;DHT22;8441;51.344;7.022;2023-03-08T01:56:57;1.20;99.90
16655;DHT22;8441;51.344;7.022;2023-03-08T01:59:26;1.20;99.90
16655;DHT22;8441;51.344;7.022;2023-03-08T02:01:53;1.30;99.90
16655;DHT22;8441;51.344;7.022;2023-03-08T02:04:22;1.30;99.90
16655;DHT22;8441;51.344;7.022;2023-03-08T02:06:49;1.30;99.90
16655;DHT22;8441;51.344;7.022;2023-03-08T02:09:16;1.20;99.90
16655;DHT22;8441;51.344;7.022;2023-03-08T02:11:44;1.20;99.90
16655;DHT22;8441;51.344;7.022;2023-03-08T02:14:11;1.20;99.90
16655;DHT22;8441;51.344;7.022;2023-03-08T02:16:38;1.10;99.90
16655;DHT22;8441;51.344;7.022;2023-03-08T02:19:11;1.10;99.90
16655;DHT22;8441;51.344;7.022;2023-03-08T02:21:41;1.10;99.90
16655;DHT22;8441;51.344;7.022;2023-03-08T02:24:18;1.10;99.90
16655;DHT22;8441;51.344;7.022;2023-03-08T02:26:46;1.10;99.90
16655;DHT22;8441;51.344;7.022;2023-03-08T02:29:13;1.10;99.90
16655;DHT22;8441;51.344;7.022;2023-03-08T02:31:41;1.10;99.90
16655;DHT22;8441;51.344;7.022;2023-03-08T02:34:08;1.10;99.90
16655;DHT22;8441;51.344;7.022;2023-03-08T02:36:35;1.10;99.90
16655;DHT22;8441;51.344;7.022;2023-03-08T02:39:02;1.00;99.90
16655;DHT22;8441;51.344;7.022;2023-03-08T02:41:31;1.10;99.90
16655;DHT22;8441;51.344;7.022;2023-03-08T02:43:58;1.00;99.90
16655;DHT22;8441;51.344;7.022;2023-03-08T02:46:25;1.10;99.90
16655;DHT22;8441;51.344;7.022;2023-03-08T02:48:53;1.10;99.90
16655;DHT22;8441;51.344;7.022;2023-03-08T02:51:20;1.10;99.90
16655;DHT22;8441;51.344;7.022;2023-03-08T02:53:47;1.10;99.90
16655;DHT22;8441;51.344;7.022;2023-03-08T02:56:14;1.10;99.90
16655;DHT22;8441;51.344;7.022;2023-03-08T02:58:43;1.10;99.90
16655;DHT22;8441;51.344;7.022;2023-03-08T03:01:11;1.00;99.90
16655;DHT22;8441;51.344;7.022;2023-03-08T03:03:38;1.00;99.90
16655;DHT22;8441;51.344;7.022;2023-03-08T03:06:12;1.10;99.90
16655;DHT22;8441;51.344;7.022;2023-03-08T03:08:40;1.10;99.90
16655;DHT22;8441;51.344;7.022;2023-03-08T03:11:11;1.10;99.90
16655;DHT22;8441;51.344;7.022;2023-03-08T03:13:39;1.00;99.90
16655;DHT22;8441;51.344;7.022;2023-03-08T03:16:09;1.10;99.90
16655;DHT22;8441;51.344;7.022;2023-03-08T03:18:37;1.00;99.90
16655;DHT22;8441;51.344;7.022;2023-03-08T03:21:06;1.00;99.90
16655;DHT22;8441;51.344;7.022;2023-03-08T03:23:33;1.00;99.90
16655;DHT22;8441;51.344;7.022;2023-03-08T03:26:03;1.00;99.90
16655;DHT22;8441;51.344;7.022;2023-03-08T03:28:31;1.00;99.90
16655;DHT22;8441;51.344;7.022;2023-03-08T03:30:58;1.00;99.90
16655;DHT22;8441;51.344;7.022;2023-03-08T03:33:27;1.00;99.90
16655;DHT22;8441;51.344;7.022;2023-03-08T03:35:54;1.10;99.90
16655;DHT22;8441;51.344;7.022;2023-03-08T03:38:22;1.10;99.90
16655;DHT22;8441;51.344;7.022;2023-03-08T03:40:49;1.00;99.90
16655;DHT22;8441;51.344;7.022;2023-03-08T03:43:16;1.00;99.90
16655;DHT22;8441;51.344;7.022;2023-03-08T03:45:43;0.90;99.90
16655;DHT22;8441;51.344;7.022;2023-03-08T03:48:10;1.00;99.90
16655;DHT22;8441;51.344;7.022;2023-03-08T03:50:39;1.00;99.90
16655;DHT22;8441;51.344;7.022;2023-03-08T03:53:06;0.90;99.90
16655;DHT22;8441;51.344;7.022;2023-03-08T03:55:33;0.90;99.90
16655;DHT22;8441;51.344;7.022;2023-03-08T03:58:00;0.90;99.90
16655;DHT22;8441;51.344;7.022;2023-03-08T04:00:27;0.90;99.90
16655;DHT22;8441;51.344;7.022;2023-03-08T04:02:54;0.90;99.90
16655;DHT22;8441;51.344;7.022;2023-03-08T04:05:22;0.90;99.90
16655;DHT22;8441;51.344;7.022;2023-03-08T04:07:50;1.00;99.90
16655;DHT22;8441;51.344;7.022;2023-03-08T04:10:17;1.00;99.90
16655;DHT22;8441;51.344;7.022;2023-03-08T04:12:47;1.00;99.90
16655;DHT22;8441;51.344;7.022;2023-03-08T04:15:15;1.00;99.90
16655;DHT22;8441;51.344;7.022;2023-03-08T04:17:42;1.00;99.90
16655;DHT22;8441;51.344;7.022;2023-03-08T04:20:10;1.00;99.90
16655;DHT22;8441;51.344;7.022;2023-03-08T04:22:38;0.90;99.90
16655;DHT22;8441;51.344;7.022;2023-03-08T04:25:08;0.90;99.90
16655;DHT22;8441;51.344;7.022;2023-03-08T04:27:35;1.00;99.90
16655;DHT22;8441;51.344;7.022;2023-03-08T04:30:02;1.00;99.90
16655;DHT22;8441;51.344;7.022;2023-03-08T04:32:30;1.00;99.90
16655;DHT22;8441;51.344;7.022;2023-03-08T04:34:57;1.00;99.90
16655;DHT22;8441;51.344;7.022;2023-03-08T04:37:24;1.00;99.90
16655;DHT22;8441;51.344;7.022;2023-03-08T04:39:52;1.00;99.90
16655;DHT22;8441;51.344;7.022;2023-03-08T04:42:20;0.90;99.90
16655;DHT22;8441;51.344;7.022;2023-03-08T04:44:47;0.90;99.90
16655;DHT22;8441;51.344;7.022;2023-03-08T04:47:15;0.90;99.90
16655;DHT22;8441;51.344;7.022;2023-03-08T04:49:42;1.00;99.90
16655;DHT22;8441;51.344;7.022;2023-03-08T04:52:09;0.90;99.90
16655;DHT22;8441;51.344;7.022;2023-03-08T04:54:37;0.90;99.90
16655;DHT22;8441;51.344;7.022;2023-03-08T04:57:04;0.90;99.90
16655;DHT22;8441;51.344;7.022;2023-03-08T04:59:33;0.90;99.90
16655;DHT22;8441;51.344;7.022;2023-03-08T05:02:00;0.80;99.90
16655;DHT22;8441;51.344;7.022;2023-03-08T05:04:27;0.80;99.90
16655;DHT22;8441;51.344;7.022;2023-03-08T05:06:54;0.90;99.90
16655;DHT22;8441;51.344;7.022;2023-03-08T05:09:21;0.90;99.90
16655;DHT22;8441;51.344;7.022;2023-03-08T05:11:49;0.90;99.90
16655;DHT22;8441;51.344;7.022;2023-03-08T05:14:16;0.90;99.90
16655;DHT22;8441;51.344;7.022;2023-03-08T05:16:45;0.90;99.90
16655;DHT22;8441;51.344;7.022;2023-03-08T05:19:12;0.90;99.90
16655;DHT22;8441;51.344;7.022;2023-03-08T05:21:39;0.90;99.90
16655;DHT22;8441;51.344;7.022;2023-03-08T05:24:06;0.90;99.90
16655;DHT22;8441;51.344;7.022;2023-03-08T05:26:33;0.90;99.90
16655;DHT22;8441;51.344;7.022;2023-03-08T05:29:02;0.80;99.90
16655;DHT22;8441;51.344;7.022;2023-03-08T05:31:31;0.80;99.90
16655;DHT22;8441;51.344;7.022;2023-03-08T05:34:02;0.90;99.90
16655;DHT22;8441;51.344;7.022;2023-03-08T05:36:30;0.90;99.90
16655;DHT22;8441;51.344;7.022;2023-03-08T05:38:58;0.90;99.90
16655;DHT22;8441;51.344;7.022;2023-03-08T05:41:25;0.90;99.90
16655;DHT22;8441;51.344;7.022;2023-03-08T05:43:52;0.90;99.90
16655;DHT22;8441;51.344;7.022;2023-03-08T05:46:19;0.90;99.90
16655;DHT22;8441;51.344;7.022;2023-03-08T05:48:46;1.00;99.90
16655;DHT22;8441;51.344;7.022;2023-03-08T05:51:16;1.00;99.90
16655;DHT22;8441;51.344;7.022;2023-03-08T05:53:44;1.00;99.90
16655;DHT22;8441;51.344;7.022;2023-03-08T05:56:13;1.00;99.90
16655;DHT22;8441;51.344;7.022;2023-03-08T05:58:41;1.00;99.90
16655;DHT22;8441;51.344;7.022;2023-03-08T06:01:10;1.00;99.90
16655;DHT22;8441;51.344;7.022;2023-03-08T06:03:38;1.00;99.90
16655;DHT22;8441;51.344;7.022;2023-03-08T06:06:05;0.90;99.90
16655;DHT22;8441;51.344;7.022;2023-03-08T06:08:33;1.00;99.90
16655;DHT22;8441;51.344;7.022;2023-03-08T06:11:00;0.90;99.90
16655;DHT22;8441;51.344;7.022;2023-03-08T06:13:28;0.90;99.90
16655;DHT22;8441;51.344;7.022;2023-03-08T06:15:55;0.90;99.90
16655;DHT22;8441;51.344;7.022;2023-03-08T06:18:23;0.80;99.90
16655;DHT22;8441;51.344;7.022;2023-03-08T06:21:00;0.70;99.90
16655;DHT22;8441;51.344;7.022;2023-03-08T06:23:29;0.70;99.90
16655;DHT22;8441;51.344;7.022;2023-03-08T06:25:58;0.70;99.90
16655;DHT22;8441;51.344;7.022;2023-03-08T06:28:26;0.70;99.90
16655;DHT22;8441;51.344;7.022;2023-03-08T06:30:54;0.70;99.90
16655;DHT22;8441;51.344;7.022;2023-03-08T06:33:23;0.70;99.90
16655;DHT22;8441;51.344;7.022;2023-03-08T06:35:55;0.70;99.90
16655;DHT22;8441;51.344;7.022;2023-03-08T06:38:23;0.70;99.90
16655;DHT22;8441;51.344;7.022;2023-03-08T06:40:50;0.70;99.90
16655;DHT22;8441;51.344;7.022;2023-03-08T06:43:19;0.70;99.90
16655;DHT22;8441;51.344;7.022;2023-03-08T06:45:46;0.70;99.90
16655;DHT22;8441;51.344;7.022;2023-03-08T06:48:14;0.70;99.90
16655;DHT22;8441;51.344;7.022;2023-03-08T06:50:41;0.80;99.90
16655;DHT22;8441;51.344;7.022;2023-03-08T06:53:08;0.90;99.90
16655;DHT22;8441;51.344;7.022;2023-03-08T06:55:37;0.80;99.90
16655;DHT22;8441;51.344;7.022;2023-03-08T06:58:05;0.80;99.90
16655;DHT22;8441;51.344;7.022;2023-03-08T07:00:34;0.80;99.90
16655;DHT22;8441;51.344;7.022;2023-03-08T07:03:01;0.90;99.90
16655;DHT22;8441;51.344;7.022;2023-03-08T07:05:29;0.90;99.90
16655;DHT22;8441;51.344;7.022;2023-03-08T07:07:56;0.80;99.90
16655;DHT22;8441;51.344;7.022;2023-03-08T07:10:23;0.80;99.90
16655;DHT22;8441;51.344;7.022;2023-03-08T07:12:50;0.90;99.90
16655;DHT22;8441;51.344;7.022;2023-03-08T07:15:19;0.90;99.90
16655;DHT22;8441;51.344;7.022;2023-03-08T07:17:50;0.80;99.90
16655;DHT22;8441;51.344;7.022;2023-03-08T07:20:20;0.80;99.90
16655;DHT22;8441;51.344;7.022;2023-03-08T07:22:48;0.90;99.90
16655;DHT22;8441;51.344;7.022;2023-03-08T07:25:17;0.90;99.90
16655;DHT22;8441;51.344;7.022;2023-03-08T07:27:44;0.90;99.90
16655;DHT22;8441;51.344;7.022;2023-03-08T07:30:13;0.90;99.90
16655;DHT22;8441;51.344;7.022;2023-03-08T07:32:41;0.90;99.90
16655;DHT22;8441;51.344;7.022;2023-03-08T07:35:12;0.90;99.90
16655;DHT22;8441;51.344;7.022;2023-03-08T07:37:39;0.90;99.90
16655;DHT22;8441;51.344;7.022;2023-03-08T07:40:08;0.90;99.90
16655;DHT22;8441;51.344;7.022;2023-03-08T07:42:36;0.90;99.90
16655;DHT22;8441;51.344;7.022;2023-03-08T07:45:04;1.00;99.90
16655;DHT22;8441;51.344;7.022;2023-03-08T07:47:31;1.00;99.90
16655;DHT22;8441;51.344;7.022;2023-03-08T07:49:58;0.90;99.90
16655;DHT22;8441;51.344;7.022;2023-03-08T07:52:28;0.90;99.90
16655;DHT22;8441;51.344;7.022;2023-03-08T07:54:55;0.90;99.90
16655;DHT22;8441;51.344;7.022;2023-03-08T07:57:23;1.00;99.90
16655;DHT22;8441;51.344;7.022;2023-03-08T07:59:50;1.00;99.90
16655;DHT22;8441;51.344;7.022;2023-03-08T08:02:17;0.90;99.90
16655;DHT22;8441;51.344;7.022;2023-03-08T08:04:45;1.00;99.90
16655;DHT22;8441;51.344;7.022;2023-03-08T08:07:14;1.00;99.90
16655;DHT22;8441;51.344;7.022;2023-03-08T08:09:43;1.20;99.90
16655;DHT22;8441;51.344;7.022;2023-03-08T08:12:10;1.20;99.90
16655;DHT22;8441;51.344;7.022;2023-03-08T08:14:37;1.20;99.90
16655;DHT22;8441;51.344;7.022;2023-03-08T08:17:04;1.10;99.90
16655;DHT22;8441;51.344;7.022;2023-03-08T08:19:32;1.10;99.90
16655;DHT22;8441;51.344;7.022;2023-03-08T08:21:59;1.10;99.90
16655;DHT22;8441;51.344;7.022;2023-03-08T08:24:26;1.10;99.90
16655;DHT22;8441;51.344;7.022;2023-03-08T08:26:55;1.10;99.90
16655;DHT22;8441;51.344;7.022;2023-03-08T08:29:22;1.00;99.90
16655;DHT22;8441;51.344;7.022;2023-03-08T08:31:49;1.00;99.90
16655;DHT22;8441;51.344;7.022;2023-03-08T08:34:18;0.90;99.90
16655;DHT22;8441;51.344;7.022;2023-03-08T08:36:45;1.00;99.90
16655;DHT22;8441;51.344;7.022;2023-03-08T08:39:12;1.00;99.90
16655;DHT22;8441;51.344;7.022;2023-03-08T08:41:39;1.00;99.90
16655;DHT22;8441;51.344;7.022;2023-03-08T08:44:08;1.10;99.90
16655;DHT22;8441;51.344;7.022;2023-03-08T08:46:35;1.10;99.90
16655;DHT22;8441;51.344;7.022;2023-03-08T08:49:02;1.10;99.90
16655;DHT22;8441;51.344;7.022;2023-03-08T08:51:31;1.00;99.90
16655;DHT22;8441;51.344;7.022;2023-03-08T08:53:58;1.00;99.90
16655;DHT22;8441;51.344;7.022;2023-03-08T08:56:27;1.20;99.90
16655;DHT22;8441;51.344;7.022;2023-03-08T08:58:54;1.30;99.90
16655;DHT22;8441;51.344;7.022;2023-03-08T09:01:25;1.40;99.90
16655;DHT22;8441;51.344;7.022;2023-03-08T09:03:53;1.60;99.90
16655;DHT22;8441;51.344;7.022;2023-03-08T09:06:21;1.80;99.90
16655;DHT22;8441;51.344;7.022;2023-03-08T09:08:49;1.80;99.90
16655;DHT22;8441;51.344;7.022;2023-03-08T09:11:16;1.80;99.90
16655;DHT22;8441;51.344;7.022;2023-03-08T09:13:43;1.80;99.90
16655;DHT22;8441;51.344;7.022;2023-03-08T09:16:18;1.80;99.90
16655;DHT22;8441;51.344;7.022;2023-03-08T09:18:47;1.80;99.90
16655;DHT22;8441;51.344;7.022;2023-03-08T09:21:14;1.80;99.90
16655;DHT22;8441;51.344;7.022;2023-03-08T09:23:42;1.90;99.90
16655;DHT22;8441;51.344;7.022;2023-03-08T09:26:09;2.00;99.90
16655;DHT22;8441;51.344;7.022;2023-03-08T09:28:37;1.90;99.90
16655;DHT22;8441;51.344;7.022;2023-03-08T09:31:06;2.10;99.90
16655;DHT22;8441;51.344;7.022;2023-03-08T09:33:38;2.20;99.90
16655;DHT22;8441;51.344;7.022;2023-03-08T09:36:07;2.30;99.90
16655;DHT22;8441;51.344;7.022;2023-03-08T09:38:34;2.50;99.90
16655;DHT22;8441;51.344;7.022;2023-03-08T09:41:19;2.40;99.90
16655;DHT22;8441;51.344;7.022;2023-03-08T09:44:03;2.50;99.90
16655;DHT22;8441;51.344;7.022;2023-03-08T09:46:36;2.80;99.90
16655;DHT22;8441;51.344;7.022;2023-03-08T09:49:12;2.90;99.90
16655;DHT22;8441;51.344;7.022;2023-03-08T09:51:45;3.00;99.90
16655;DHT22;8441;51.344;7.022;2023-03-08T09:54:16;2.80;99.90
16655;DHT22;8441;51.344;7.022;2023-03-08T09:56:47;2.80;99.90
16655;DHT22;8441;51.344;7.022;2023-03-08T09:59:18;2.90;99.90
16655;DHT22;8441;51.344;7.022;2023-03-08T10:01:55;2.90;99.90
16655;DHT22;8441;51.344;7.022;2023-03-08T10:04:34;3.00;99.90
16655;DHT22;8441;51.344;7.022;2023-03-08T10:07:17;3.10;99.90
16655;DHT22;8441;51.344;7.022;2023-03-08T10:09:54;3.20;99.90
16655;DHT22;8441;51.344;7.022;2023-03-08T10:12:30;3.20;99.90
16655;DHT22;8441;51.344;7.022;2023-03-08T10:15:03;3.30;99.90
16655;DHT22;8441;51.344;7.022;2023-03-08T10:17:39;3.30;99.90
16655;DHT22;8441;51.344;7.022;2023-03-08T10:20:16;3.50;99.90
16655;DHT22;8441;51.344;7.022;2023-03-08T10:22:52;3.60;99.90
16655;DHT22;8441;51.344;7.022;2023-03-08T10:25:23;3.80;99.90
16655;DHT22;8441;51.344;7.022;2023-03-08T10:27:53;3.80;99.90
16655;DHT22;8441;51.344;7.022;2023-03-08T10:30:23;3.80;99.90
16655;DHT22;8441;51.344;7.022;2023-03-08T10:32:54;3.90;99.90
16655;DHT22;8441;51.344;7.022;2023-03-08T10:35:34;4.00;99.90
16655;DHT22;8441;51.344;7.022;2023-03-08T10:38:04;4.20;99.90
16655;DHT22;8441;51.344;7.022;2023-03-08T10:40:31;4.40;99.90
16655;DHT22;8441;51.344;7.022;2023-03-08T10:43:02;4.50;99.90
16655;DHT22;8441;51.344;7.022;2023-03-08T10:45:30;4.40;99.90
16655;DHT22;8441;51.344;7.022;2023-03-08T10:47:59;4.50;99.90
16655;DHT22;8441;51.344;7.022;2023-03-08T10:50:29;4.60;99.90
16655;DHT22;8441;51.344;7.022;2023-03-08T10:53:10;4.90;99.90
16655;DHT22;8441;51.344;7.022;2023-03-08T10:55:43;4.90;99.90
16655;DHT22;8441;51.344;7.022;2023-03-08T10:58:35;5.00;99.90
16655;DHT22;8441;51.344;7.022;2023-03-08T11:01:04;5.10;99.90
16655;DHT22;8441;51.344;7.022;2023-03-08T11:03:32;5.10;99.90
16655;DHT22;8441;51.344;7.022;2023-03-08T11:06:02;5.20;99.90
16655;DHT22;8441;51.344;7.022;2023-03-08T11:08:33;5.20;99.90
16655;DHT22;8441;51.344;7.022;2023-03-08T11:11:06;5.60;99.90
16655;DHT22;8441;51.344;7.022;2023-03-08T11:13:35;5.80;99.90
16655;DHT22;8441;51.344;7.022;2023-03-08T11:16:34;5.90;99.90
16655;DHT22;8441;51.344;7.022;2023-03-08T11:19:09;5.80;99.90
16655;DHT22;8441;51.344;7.022;2023-03-08T11:21:48;5.70;99.90
16655;DHT22;8441;51.344;7.022;2023-03-08T11:24:27;5.40;99.90
16655;DHT22;8441;51.344;7.022;2023-03-08T11:27:10;5.20;99.90
16655;DHT22;8441;51.344;7.022;2023-03-08T11:29:48;5.10;99.90
16655;DHT22;8441;51.344;7.022;2023-03-08T11:32:33;4.90;99.90
16655;DHT22;8441;51.344;7.022;2023-03-08T11:35:10;4.50;99.90
16655;DHT22;8441;51.344;7.022;2023-03-08T11:37:45;4.00;99.90
16655;DHT22;8441;51.344;7.022;2023-03-08T11:40:20;3.80;99.90
16655;DHT22;8441;51.344;7.022;2023-03-08T11:42:57;4.00;99.90
16655;DHT22;8441;51.344;7.022;2023-03-08T11:45:27;4.20;99.90
16655;DHT22;8441;51.344;7.022;2023-03-08T11:48:21;4.50;99.90
16655;DHT22;8441;51.344;7.022;2023-03-08T11:50:58;4.50;99.90
16655;DHT22;8441;51.344;7.022;2023-03-08T11:53:36;4.50;99.90
16655;DHT22;8441;51.344;7.022;2023-03-08T11:56:24;4.50;99.90
16655;DHT22;8441;51.344;7.022;2023-03-08T11:58:59;4.20;99.90
16655;DHT22;8441;51.344;7.022;2023-03-08T12:01:31;3.90;99.90
16655;DHT22;8441;51.344;7.022;2023-03-08T12:04:06;3.70;99.90
16655;DHT22;8441;51.344;7.022;2023-03-08T12:06:38;3.60;99.90
16655;DHT22;8441;51.344;7.022;2023-03-08T12:09:12;3.30;99.90
16655;DHT22;8441;51.344;7.022;2023-03-08T12:11:43;3.10;99.90
16655;DHT22;8441;51.344;7.022;2023-03-08T12:14:17;3.00;99.90
16655;DHT22;8441;51.344;7.022;2023-03-08T12:16:48;2.90;99.90
16655;DHT22;8441;51.344;7.022;2023-03-08T12:19:25;2.90;99.90
16655;DHT22;8441;51.344;7.022;2023-03-08T12:21:59;3.00;99.90
16655;DHT22;8441;51.344;7.022;2023-03-08T12:24:37;3.00;99.90
16655;DHT22;8441;51.344;7.022;2023-03-08T12:27:13;3.00;99.90
16655;DHT22;8441;51.344;7.022;2023-03-08T12:29:46;3.10;99.90
16655;DHT22;8441;51.344;7.022;2023-03-08T12:32:15;3.20;99.90
16655;DHT22;8441;51.344;7.022;2023-03-08T12:34:44;3.40;99.90
16655;DHT22;8441;51.344;7.022;2023-03-08T12:37:23;3.60;99.90
16655;DHT22;8441;51.344;7.022;2023-03-08T12:39:59;4.00;99.90
16655;DHT22;8441;51.344;7.022;2023-03-08T12:42:36;4.00;99.90
16655;DHT22;8441;51.344;7.022;2023-03-08T12:45:27;4.00;99.90
16655;DHT22;8441;51.344;7.022;2023-03-08T12:48:15;4.20;99.90
16655;DHT22;8441;51.344;7.022;2023-03-08T12:50:53;4.30;99.90
16655;DHT22;8441;51.344;7.022;2023-03-08T12:53:25;4.30;99.90
16655;DHT22;8441;51.344;7.022;2023-03-08T12:56:00;4.30;99.90
16655;DHT22;8441;51.344;7.022;2023-03-08T12:58:29;4.10;99.90
16655;DHT22;8441;51.344;7.022;2023-03-08T13:00:59;4.20;99.90
16655;DHT22;8441;51.344;7.022;2023-03-08T13:03:30;4.30;99.90
16655;DHT22;8441;51.344;7.022;2023-03-08T13:06:14;4.40;99.90
16655;DHT22;8441;51.344;7.022;2023-03-08T13:08:47;4.40;99.90
16655;DHT22;8441;51.344;7.022;2023-03-08T13:11:17;4.70;99.90
16655;DHT22;8441;51.344;7.022;2023-03-08T13:13:53;5.10;99.90
16655;DHT22;8441;51.344;7.022;2023-03-08T13:16:31;5.20;99.90
16655;DHT22;8441;51.344;7.022;2023-03-08T13:19:20;5.20;99.90
16655;DHT22;8441;51.344;7.022;2023-03-08T13:21:56;5.10;99.90
16655;DHT22;8441;51.344;7.022;2023-03-08T13:24:35;4.90;99.90
16655;DHT22;8441;51.344;7.022;2023-03-08T13:27:18;4.50;99.90
16655;DHT22;8441;51.344;7.022;2023-03-08T13:29:48;4.30;99.90
16655;DHT22;8441;51.344;7.022;2023-03-08T13:32:18;3.70;99.90
16655;DHT22;8441;51.344;7.022;2023-03-08T13:34:56;3.50;99.90
16655;DHT22;8441;51.344;7.022;2023-03-08T13:37:26;3.20;99.90
16655;DHT22;8441;51.344;7.022;2023-03-08T13:39:54;3.20;99.90
16655;DHT22;8441;51.344;7.022;2023-03-08T13:42:23;3.20;99.90
16655;DHT22;8441;51.344;7.022;2023-03-08T13:44:52;3.20;99.90
16655;DHT22;8441;51.344;7.022;2023-03-08T13:47:23;3.40;99.90
16655;DHT22;8441;51.344;7.022;2023-03-08T13:49:52;3.50;99.90
16655;DHT22;8441;51.344;7.022;2023-03-08T13:52:22;3.50;99.90
16655;DHT22;8441;51.344;7.022;2023-03-08T13:54:52;3.40;99.90
16655;DHT22;8441;51.344;7.022;2023-03-08T13:57:21;3.60;99.90
16655;DHT22;8441;51.344;7.022;2023-03-08T13:59:53;3.60;99.90
16655;DHT22;8441;51.344;7.022;2023-03-08T14:02:23;3.50;99.90
16655;DHT22;8441;51.344;7.022;2023-03-08T14:04:50;3.40;99.90
16655;DHT22;8441;51.344;7.022;2023-03-08T14:07:20;3.00;99.90
16655;DHT22;8441;51.344;7.022;2023-03-08T14:09:48;3.00;99.90
16655;DHT22;8441;51.344;7.022;2023-03-08T14:12:17;2.90;99.90
16655;DHT22;8441;51.344;7.022;2023-03-08T14:14:47;2.90;99.90
16655;DHT22;8441;51.344;7.022;2023-03-08T14:17:20;3.00;99.90
16655;DHT22;8441;51.344;7.022;2023-03-08T14:19:53;2.90;99.90
16655;DHT22;8441;51.344;7.022;2023-03-08T14:22:21;2.90;99.90
16655;DHT22;8441;51.344;7.022;2023-03-08T14:24:52;2.90;99.90
16655;DHT22;8441;51.344;7.022;2023-03-08T14:27:35;2.80;99.90
16655;DHT22;8441;51.344;7.022;2023-03-08T14:30:11;2.80;99.90
16655;DHT22;8441;51.344;7.022;2023-03-08T14:32:41;2.90;99.90
16655;DHT22;8441;51.344;7.022;2023-03-08T14:35:23;3.00;99.90
16655;DHT22;8441;51.344;7.022;2023-03-08T14:37:51;3.00;99.90
16655;DHT22;8441;51.344;7.022;2023-03-08T14:40:27;2.90;99.90
16655;DHT22;8441;51.344;7.022;2023-03-08T14:42:56;2.80;99.90
16655;DHT22;8441;51.344;7.022;2023-03-08T14:45:25;2.90;99.90
16655;DHT22;8441;51.344;7.022;2023-03-08T14:47:56;2.90;99.90
16655;DHT22;8441;51.344;7.022;2023-03-08T14:50:25;2.90;99.90
16655;DHT22;8441;51.344;7.022;2023-03-08T14:52:54;2.90;99.90
16655;DHT22;8441;51.344;7.022;2023-03-08T14:55:22;3.00;99.90
16655;DHT22;8441;51.344;7.022;2023-03-08T14:57:51;3.00;99.90
16655;DHT22;8441;51.344;7.022;2023-03-08T15:00:21;3.00;99.90
16655;DHT22;8441;51.344;7.022;2023-03-08T15:02:48;3.00;99.90
16655;DHT22;8441;51.344;7.022;2023-03-08T15:05:19;3.00;99.90
16655;DHT22;8441;51.344;7.022;2023-03-08T15:07:47;3.10;99.90
16655;DHT22;8441;51.344;7.022;2023-03-08T15:10:20;3.10;99.90
16655;DHT22;8441;51.344;7.022;2023-03-08T15:12:48;2.90;99.90
16655;DHT22;8441;51.344;7.022;2023-03-08T15:15:15;2.80;99.90
16655;DHT22;8441;51.344;7.022;2023-03-08T15:17:42;2.90;99.90
16655;DHT22;8441;51.344;7.022;2023-03-08T15:20:11;3.00;99.90
16655;DHT22;8441;51.344;7.022;2023-03-08T15:22:43;2.90;99.90
16655;DHT22;8441;51.344;7.022;2023-03-08T15:25:18;2.80;99.90
16655;DHT22;8441;51.344;7.022;2023-03-08T15:27:47;2.70;99.90
16655;DHT22;8441;51.344;7.022;2023-03-08T15:30:16;2.70;99.90
16655;DHT22;8441;51.344;7.022;2023-03-08T15:32:44;2.70;99.90
16655;DHT22;8441;51.344;7.022;2023-03-08T15:35:11;2.80;99.90
16655;DHT22;8441;51.344;7.022;2023-03-08T15:37:42;2.80;99.90
16655;DHT22;8441;51.344;7.022;2023-03-08T15:40:12;2.70;99.90
16655;DHT22;8441;51.344;7.022;2023-03-08T15:42:40;2.60;99.90
16655;DHT22;8441;51.344;7.022;2023-03-08T15:45:08;2.50;99.90
16655;DHT22;8441;51.344;7.022;2023-03-08T15:47:35;2.50;99.90
16655;DHT22;8441;51.344;7.022;2023-03-08T15:50:04;2.40;99.90
16655;DHT22;8441;51.344;7.022;2023-03-08T15:52:31;2.30;99.90
16655;DHT22;8441;51.344;7.022;2023-03-08T15:55:01;2.30;99.90
16655;DHT22;8441;51.344;7.022;2023-03-08T15:57:28;2.40;99.90
16655;DHT22;8441;51.344;7.022;2023-03-08T15:59:56;2.40;99.90
16655;DHT22;8441;51.344;7.022;2023-03-08T16:02:23;2.50;99.90
16655;DHT22;8441;51.344;7.022;2023-03-08T16:04:50;2.40;99.90
16655;DHT22;8441;51.344;7.022;2023-03-08T16:07:20;2.30;99.90
16655;DHT22;8441;51.344;7.022;2023-03-08T16:09:48;2.30;99.90
16655;DHT22;8441;51.344;7.022;2023-03-08T16:12:16;2.30;99.90
16655;DHT22;8441;51.344;7.022;2023-03-08T16:14:45;2.40;99.90
16655;DHT22;8441;51.344;7.022;2023-03-08T16:17:13;2.30;99.90
16655;DHT22;8441;51.344;7.022;2023-03-08T16:19:40;2.30;99.90